CYAY

Saint Anthony Airport

St. Anthony, Canada
METAR CYAY 250600Z AUTO 36002KT 9SM CLR M00/M01 A3001 RMK SLP166
Observed Flight Rules
Jun-25 @ 06:00 UTC (21 minutes ago) Visual Flight Rules
Wind Visibility Clouds
360° at 2 knots 9 miles
  • Clear skies
Temperatures Readings
Current 0°C / 32°F
Dewpoint -1°C / 30°F
Humidity 93%
Altimeter 30.01" Hg
Pressure 1016.6 hPa
Elevation 28
METAR CYAY 250600Z AUTO 36002KT 9SM CLR M00/M01 A3001 RMK SLP166
Observed Flight Rules
Jun-25 @ 06:00 UTC
(21 minutes ago)
VFR
Wind Visibility
360° at 2 knots 9 miles
Clouds
  • Clear skies
Temperature Dewpoint
0°C / 32°F -1°C / 30°F
Humidity Altimeter Pressure
93% 30.01" Hg 1016.6 hPa